sensor_id;sensor_type;location;lat;lon;timestamp;pressure;altitude;pressure_sealevel;temperature;humidity
23679;BME280;12016;51.668;6.874;2023-03-01T00:01:52;102833.34;;;2.33;56.23
23679;BME280;12016;51.668;6.874;2023-03-01T00:07:54;102828.84;;;2.07;56.74
23679;BME280;12016;51.668;6.874;2023-03-01T00:13:56;102822.66;;;1.61;57.62
23679;BME280;12016;51.668;6.874;2023-03-01T00:19:59;102816.28;;;1.49;56.85
23679;BME280;12016;51.668;6.874;2023-03-01T00:26:01;102810.16;;;1.48;57.10
23679;BME280;12016;51.668;6.874;2023-03-01T00:32:03;102812.16;;;1.33;57.89
23679;BME280;12016;51.668;6.874;2023-03-01T00:38:05;102811.09;;;1.21;58.13
23679;BME280;12016;51.668;6.874;2023-03-01T00:44:07;102804.34;;;1.12;58.25
23679;BME280;12016;51.668;6.874;2023-03-01T00:50:09;102797.59;;;1.09;57.42
23679;BME280;12016;51.668;6.874;2023-03-01T00:56:12;102800.00;;;0.97;57.71
23679;BME280;12016;51.668;6.874;2023-03-01T01:02:14;102788.75;;;0.89;57.44
23679;BME280;12016;51.668;6.874;2023-03-01T01:08:16;102791.81;;;0.92;57.80
23679;BME280;12016;51.668;6.874;2023-03-01T01:14:18;102778.34;;;0.94;57.68
23679;BME280;12016;51.668;6.874;2023-03-01T01:20:20;102773.84;;;0.94;58.51
23679;BME280;12016;51.668;6.874;2023-03-01T01:26:23;102764.25;;;0.87;59.19
23679;BME280;12016;51.668;6.874;2023-03-01T01:32:25;102756.69;;;0.84;58.87
23679;BME280;12016;51.668;6.874;2023-03-01T01:38:27;102747.66;;;0.71;59.67
23679;BME280;12016;51.668;6.874;2023-03-01T01:44:29;102745.19;;;0.63;59.11
23679;BME280;12016;51.668;6.874;2023-03-01T01:50:31;102745.31;;;0.55;58.89
23679;BME280;12016;51.668;6.874;2023-03-01T01:56:40;102747.78;;;0.57;59.21
23679;BME280;12016;51.668;6.874;2023-03-01T02:02:44;102738.81;;;0.58;59.67
23679;BME280;12016;51.668;6.874;2023-03-01T02:08:47;102745.13;;;0.50;59.46
23679;BME280;12016;51.668;6.874;2023-03-01T02:14:50;102735.66;;;0.41;59.13
23679;BME280;12016;51.668;6.874;2023-03-01T02:21:06;102731.72;;;0.24;60.31
23679;BME280;12016;51.668;6.874;2023-03-01T02:27:11;102725.97;;;0.20;60.14
23679;BME280;12016;51.668;6.874;2023-03-01T02:33:13;102731.91;;;0.22;60.38
23679;BME280;12016;51.668;6.874;2023-03-01T02:39:17;102720.91;;;0.25;60.56
23679;BME280;12016;51.668;6.874;2023-03-01T02:45:20;102723.13;;;0.22;59.44
23679;BME280;12016;51.668;6.874;2023-03-01T02:57:24;102728.28;;;0.02;60.69
23679;BME280;12016;51.668;6.874;2023-03-01T03:03:29;102736.84;;;-0.03;60.15
23679;BME280;12016;51.668;6.874;2023-03-01T03:09:31;102739.69;;;-0.04;59.85
23679;BME280;12016;51.668;6.874;2023-03-01T03:15:32;102732.09;;;-0.07;59.85
23679;BME280;12016;51.668;6.874;2023-03-01T03:21:37;102729.84;;;-0.10;60.23
23679;BME280;12016;51.668;6.874;2023-03-01T03:27:40;102714.34;;;-0.13;60.93
23679;BME280;12016;51.668;6.874;2023-03-01T03:33:41;102717.03;;;-0.07;60.56
23679;BME280;12016;51.668;6.874;2023-03-01T03:39:43;102715.56;;;-0.16;61.25
23679;BME280;12016;51.668;6.874;2023-03-01T03:45:45;102718.38;;;-0.17;61.62
23679;BME280;12016;51.668;6.874;2023-03-01T03:51:47;102706.97;;;-0.18;61.05
23679;BME280;12016;51.668;6.874;2023-03-01T03:57:49;102704.44;;;-0.26;61.59
23679;BME280;12016;51.668;6.874;2023-03-01T04:03:55;102695.47;;;-0.31;61.38
23679;BME280;12016;51.668;6.874;2023-03-01T04:09:58;102690.50;;;-0.41;61.18
23679;BME280;12016;51.668;6.874;2023-03-01T04:16:00;102683.69;;;-0.50;60.83
23679;BME280;12016;51.668;6.874;2023-03-01T04:22:02;102682.19;;;-0.59;60.78
23679;BME280;12016;51.668;6.874;2023-03-01T04:28:10;102677.47;;;-0.64;60.66
23679;BME280;12016;51.668;6.874;2023-03-01T04:34:12;102683.69;;;-0.78;60.95
23679;BME280;12016;51.668;6.874;2023-03-01T04:40:15;102670.31;;;-0.91;61.42
23679;BME280;12016;51.668;6.874;2023-03-01T04:46:18;102673.91;;;-0.99;62.00
23679;BME280;12016;51.668;6.874;2023-03-01T04:52:21;102668.78;;;-1.00;62.10
23679;BME280;12016;51.668;6.874;2023-03-01T04:58:23;102666.50;;;-1.25;63.11
23679;BME280;12016;51.668;6.874;2023-03-01T05:04:25;102664.81;;;-1.32;63.12
23679;BME280;12016;51.668;6.874;2023-03-01T05:10:29;102659.03;;;-1.21;63.00
23679;BME280;12016;51.668;6.874;2023-03-01T05:16:34;102655.00;;;-1.17;62.69
23679;BME280;12016;51.668;6.874;2023-03-01T05:22:39;102657.56;;;-1.24;62.66
23679;BME280;12016;51.668;6.874;2023-03-01T05:28:41;102665.78;;;-1.19;61.99
23679;BME280;12016;51.668;6.874;2023-03-01T05:34:44;102653.69;;;-1.06;61.55
23679;BME280;12016;51.668;6.874;2023-03-01T05:40:51;102655.31;;;-1.05;61.83
23679;BME280;12016;51.668;6.874;2023-03-01T05:46:54;102648.00;;;-1.03;61.90
23679;BME280;12016;51.668;6.874;2023-03-01T05:53:00;102653.56;;;-0.98;62.21
23679;BME280;12016;51.668;6.874;2023-03-01T05:59:03;102659.47;;;-0.96;63.14
23679;BME280;12016;51.668;6.874;2023-03-01T06:05:06;102646.72;;;-0.93;63.06
23679;BME280;12016;51.668;6.874;2023-03-01T06:11:08;102650.22;;;-0.86;62.65
23679;BME280;12016;51.668;6.874;2023-03-01T06:17:10;102650.66;;;-0.82;62.28
23679;BME280;12016;51.668;6.874;2023-03-01T06:23:12;102641.66;;;-0.88;62.58
23679;BME280;12016;51.668;6.874;2023-03-01T06:29:14;102637.94;;;-0.93;62.79
23679;BME280;12016;51.668;6.874;2023-03-01T06:35:16;102632.03;;;-0.95;62.84
23679;BME280;12016;51.668;6.874;2023-03-01T06:41:21;102630.19;;;-0.95;63.28
23679;BME280;12016;51.668;6.874;2023-03-01T06:47:23;102631.88;;;-0.87;62.26
23679;BME280;12016;51.668;6.874;2023-03-01T06:53:24;102637.88;;;-0.79;62.18
23679;BME280;12016;51.668;6.874;2023-03-01T06:59:26;102648.06;;;-0.76;62.11
23679;BME280;12016;51.668;6.874;2023-03-01T07:08:46;102580.84;;;-1.09;60.62
23679;BME280;12016;51.668;6.874;2023-03-01T07:14:55;102549.28;;;-1.11;61.42
23679;BME280;12016;51.668;6.874;2023-03-01T07:20:57;102571.31;;;-0.82;61.17
23679;BME280;12016;51.668;6.874;2023-03-01T07:26:58;102430.47;;;-1.47;61.65
23679;BME280;12016;51.668;6.874;2023-03-01T07:33:00;102647.09;;;-0.12;62.08
23679;BME280;12016;51.668;6.874;2023-03-01T07:39:02;102630.97;;;0.17;61.50
23679;BME280;12016;51.668;6.874;2023-03-01T07:45:05;102496.34;;;-0.89;62.16
23679;BME280;12016;51.668;6.874;2023-03-01T07:51:07;102402.78;;;-0.88;61.93
23679;BME280;12016;51.668;6.874;2023-03-01T07:57:10;102642.81;;;0.76;61.84
23679;BME280;12016;51.668;6.874;2023-03-01T08:03:12;102556.84;;;0.37;61.50
23679;BME280;12016;51.668;6.874;2023-03-01T08:09:14;102644.91;;;1.00;61.23
23679;BME280;12016;51.668;6.874;2023-03-01T08:15:16;102630.00;;;1.12;60.87
23679;BME280;12016;51.668;6.874;2023-03-01T08:21:18;102262.31;;;-1.13;60.69
23679;BME280;12016;51.668;6.874;2023-03-01T08:27:20;102632.84;;;1.43;60.53
23679;BME280;12016;51.668;6.874;2023-03-01T08:33:22;102007.34;;;-2.52;60.33
23679;BME280;12016;51.668;6.874;2023-03-01T08:39:23;102129.81;;;-1.51;59.88
23679;BME280;12016;51.668;6.874;2023-03-01T08:45:25;102003.25;;;-2.07;60.09
23679;BME280;12016;51.668;6.874;2023-03-01T08:51:27;102620.50;;;1.95;60.35
23679;BME280;12016;51.668;6.874;2023-03-01T08:57:30;102367.66;;;0.51;59.96
23679;BME280;12016;51.668;6.874;2023-03-01T09:03:32;101974.47;;;-1.95;59.30
23679;BME280;12016;51.668;6.874;2023-03-01T09:09:34;102625.88;;;2.46;59.30
23679;BME280;12016;51.668;6.874;2023-03-01T09:15:37;102602.22;;;2.63;57.81
23679;BME280;12016;51.668;6.874;2023-03-01T09:21:39;102598.03;;;2.80;57.29
23679;BME280;12016;51.668;6.874;2023-03-01T09:27:41;102612.47;;;2.98;57.60
23679;BME280;12016;51.668;6.874;2023-03-01T09:33:46;102591.19;;;3.22;56.10
23679;BME280;12016;51.668;6.874;2023-03-01T09:39:49;102413.44;;;2.32;55.80
23679;BME280;12016;51.668;6.874;2023-03-01T09:45:53;102562.81;;;3.53;54.84
23679;BME280;12016;51.668;6.874;2023-03-01T09:52:00;102496.50;;;3.45;54.48
23679;BME280;12016;51.668;6.874;2023-03-01T10:04:42;102561.56;;;4.40;53.43
23679;BME280;12016;51.668;6.874;2023-03-01T10:10:47;102264.25;;;2.95;52.48
23679;BME280;12016;51.668;6.874;2023-03-01T10:16:58;102324.94;;;3.64;51.69
23679;BME280;12016;51.668;6.874;2023-03-01T10:23:04;102468.94;;;5.29;52.28
23679;BME280;12016;51.668;6.874;2023-03-01T10:29:07;102534.28;;;8.07;50.56
23679;BME280;12016;51.668;6.874;2023-03-01T10:35:17;102509.22;;;17.38;30.85
23679;BME280;12016;51.668;6.874;2023-03-01T10:41:21;102385.81;;;21.02;29.22
23679;BME280;12016;51.668;6.874;2023-03-01T10:47:26;102500.56;;;23.51;20.46
23679;BME280;12016;51.668;6.874;2023-03-01T10:59:31;102472.78;;;26.38;17.96
23679;BME280;12016;51.668;6.874;2023-03-01T11:05:33;102470.03;;;27.26;16.17
23679;BME280;12016;51.668;6.874;2023-03-01T11:11:35;102476.44;;;28.17;16.19
23679;BME280;12016;51.668;6.874;2023-03-01T11:17:37;102470.59;;;28.71;15.34
23679;BME280;12016;51.668;6.874;2023-03-01T11:23:54;102461.88;;;29.44;14.34
23679;BME280;12016;51.668;6.874;2023-03-01T11:29:58;102452.56;;;29.93;13.86
23679;BME280;12016;51.668;6.874;2023-03-01T11:36:13;102458.94;;;30.60;14.04
23679;BME280;12016;51.668;6.874;2023-03-01T11:42:19;102445.59;;;30.88;12.79
23679;BME280;12016;51.668;6.874;2023-03-01T11:55:04;102442.44;;;31.61;12.03
23679;BME280;12016;51.668;6.874;2023-03-01T12:07:32;102431.78;;;32.91;11.96
23679;BME280;12016;51.668;6.874;2023-03-01T12:38:25;102384.53;;;32.80;11.60
23679;BME280;12016;51.668;6.874;2023-03-01T12:50:57;102375.03;;;31.74;11.38
23679;BME280;12016;51.668;6.874;2023-03-01T12:57:02;102367.84;;;31.12;12.22
23679;BME280;12016;51.668;6.874;2023-03-01T13:03:25;102360.47;;;28.75;12.82
23679;BME280;12016;51.668;6.874;2023-03-01T13:09:37;102361.88;;;27.52;14.71
23679;BME280;12016;51.668;6.874;2023-03-01T13:15:40;102358.06;;;28.03;13.83
23679;BME280;12016;51.668;6.874;2023-03-01T13:21:42;102359.19;;;27.81;14.30
23679;BME280;12016;51.668;6.874;2023-03-01T13:27:45;102340.19;;;27.79;14.56
23679;BME280;12016;51.668;6.874;2023-03-01T13:33:47;102330.66;;;26.90;14.96
23679;BME280;12016;51.668;6.874;2023-03-01T13:39:49;102321.47;;;26.20;15.22
23679;BME280;12016;51.668;6.874;2023-03-01T13:45:52;102312.75;;;25.44;16.13
23679;BME280;12016;51.668;6.874;2023-03-01T13:51:54;102303.78;;;24.65;16.75
23679;BME280;12016;51.668;6.874;2023-03-01T13:57:59;102295.97;;;23.79;17.71
23679;BME280;12016;51.668;6.874;2023-03-01T14:04:02;102313.53;;;23.51;17.46
23679;BME280;12016;51.668;6.874;2023-03-01T14:10:05;102283.09;;;20.11;20.18
23679;BME280;12016;51.668;6.874;2023-03-01T14:28:21;102269.81;;;23.08;17.74
23679;BME280;12016;51.668;6.874;2023-03-01T14:34:24;102259.94;;;20.33;20.37
23679;BME280;12016;51.668;6.874;2023-03-01T14:46:35;102241.44;;;22.02;19.01
23679;BME280;12016;51.668;6.874;2023-03-01T14:52:39;102232.81;;;22.35;18.26
23679;BME280;12016;51.668;6.874;2023-03-01T14:58:41;102227.03;;;22.91;18.90
23679;BME280;12016;51.668;6.874;2023-03-01T15:04:45;102212.72;;;24.28;17.00
23679;BME280;12016;51.668;6.874;2023-03-01T15:16:59;102199.25;;;23.54;17.97
23679;BME280;12016;51.668;6.874;2023-03-01T15:23:01;102176.41;;;23.73;18.42
23679;BME280;12016;51.668;6.874;2023-03-01T15:29:03;102197.72;;;23.57;18.22
23679;BME280;12016;51.668;6.874;2023-03-01T15:41:26;102208.28;;;20.68;20.19
23679;BME280;12016;51.668;6.874;2023-03-01T15:47:29;102196.34;;;19.01;22.24
23679;BME280;12016;51.668;6.874;2023-03-01T15:53:32;102183.69;;;17.87;23.34
23679;BME280;12016;51.668;6.874;2023-03-01T15:59:38;102219.19;;;16.92;24.48
23679;BME280;12016;51.668;6.874;2023-03-01T16:05:41;102191.09;;;15.92;25.09
23679;BME280;12016;51.668;6.874;2023-03-01T16:11:42;102185.13;;;15.59;25.26
23679;BME280;12016;51.668;6.874;2023-03-01T16:17:44;101758.50;;;12.27;25.57
23679;BME280;12016;51.668;6.874;2023-03-01T16:23:55;101721.81;;;11.61;25.78
23679;BME280;12016;51.668;6.874;2023-03-01T16:29:58;101577.91;;;10.12;26.65
23679;BME280;12016;51.668;6.874;2023-03-01T16:36:10;102049.66;;;12.49;27.92
23679;BME280;12016;51.668;6.874;2023-03-01T16:42:13;101817.16;;;10.48;28.44
23679;BME280;12016;51.668;6.874;2023-03-01T16:48:15;101952.28;;;10.60;29.24
23679;BME280;12016;51.668;6.874;2023-03-01T16:54:16;102223.66;;;11.71;29.17
23679;BME280;12016;51.668;6.874;2023-03-01T17:00:18;102084.88;;;10.52;29.84
23679;BME280;12016;51.668;6.874;2023-03-01T17:06:21;102086.16;;;10.05;30.13
23679;BME280;12016;51.668;6.874;2023-03-01T17:12:23;102198.81;;;10.57;30.26
23679;BME280;12016;51.668;6.874;2023-03-01T17:18:25;101976.19;;;8.99;31.55
23679;BME280;12016;51.668;6.874;2023-03-01T17:24:27;101996.09;;;8.77;32.20
23679;BME280;12016;51.668;6.874;2023-03-01T17:30:30;101940.69;;;8.05;32.17
23679;BME280;12016;51.668;6.874;2023-03-01T17:36:32;102215.69;;;9.53;32.48
23679;BME280;12016;51.668;6.874;2023-03-01T17:42:42;102211.94;;;9.28;33.00
23679;BME280;12016;51.668;6.874;2023-03-01T17:48:44;102216.16;;;8.99;33.35
23679;BME280;12016;51.668;6.874;2023-03-01T17:54:45;102224.72;;;8.76;35.18
23679;BME280;12016;51.668;6.874;2023-03-01T18:00:49;102140.44;;;8.24;34.05
23679;BME280;12016;51.668;6.874;2023-03-01T18:06:51;102167.69;;;8.01;34.55
23679;BME280;12016;51.668;6.874;2023-03-01T18:12:53;102069.88;;;7.25;35.16
23679;BME280;12016;51.668;6.874;2023-03-01T18:18:56;102221.84;;;7.93;35.75
23679;BME280;12016;51.668;6.874;2023-03-01T18:24:58;101614.97;;;3.83;35.62
23679;BME280;12016;51.668;6.874;2023-03-01T18:31:06;102215.75;;;7.66;36.12
23679;BME280;12016;51.668;6.874;2023-03-01T18:37:15;102211.06;;;7.51;36.17
23679;BME280;12016;51.668;6.874;2023-03-01T18:43:17;101510.41;;;2.66;37.80
23679;BME280;12016;51.668;6.874;2023-03-01T18:49:19;102199.72;;;6.85;37.46
23679;BME280;12016;51.668;6.874;2023-03-01T18:55:21;102134.91;;;6.34;38.02
23679;BME280;12016;51.668;6.874;2023-03-01T19:01:25;101677.31;;;3.32;37.98
23679;BME280;12016;51.668;6.874;2023-03-01T19:07:27;101998.16;;;5.44;38.00
23679;BME280;12016;51.668;6.874;2023-03-01T19:13:29;102199.97;;;6.84;39.15
23679;BME280;12016;51.668;6.874;2023-03-01T19:19:32;101396.56;;;1.56;38.82
23679;BME280;12016;51.668;6.874;2023-03-01T19:25:34;102198.88;;;6.58;39.73
23679;BME280;12016;51.668;6.874;2023-03-01T19:31:37;102219.38;;;6.47;39.99
23679;BME280;12016;51.668;6.874;2023-03-01T19:37:39;102038.13;;;5.17;40.27
23679;BME280;12016;51.668;6.874;2023-03-01T19:43:42;102257.88;;;6.07;40.47
23679;BME280;12016;51.668;6.874;2023-03-01T19:49:44;101719.41;;;2.50;40.78
23679;BME280;12016;51.668;6.874;2023-03-01T19:55:46;102286.31;;;6.14;40.53
23679;BME280;12016;51.668;6.874;2023-03-01T20:01:49;101937.66;;;4.27;41.16
23679;BME280;12016;51.668;6.874;2023-03-01T20:07:54;102056.56;;;5.01;41.75
23679;BME280;12016;51.668;6.874;2023-03-01T20:13:58;101877.97;;;3.83;41.94
23679;BME280;12016;51.668;6.874;2023-03-01T20:19:59;101664.16;;;2.40;41.74
23679;BME280;12016;51.668;6.874;2023-03-01T20:26:07;102205.28;;;5.80;42.88
23679;BME280;12016;51.668;6.874;2023-03-01T20:32:09;102196.81;;;5.21;42.60
23679;BME280;12016;51.668;6.874;2023-03-01T20:38:12;101563.59;;;1.46;43.04
23679;BME280;12016;51.668;6.874;2023-03-01T20:44:22;102203.09;;;5.60;43.14
23679;BME280;12016;51.668;6.874;2023-03-01T20:50:24;102274.69;;;5.58;43.30
23679;BME280;12016;51.668;6.874;2023-03-01T20:56:27;102291.22;;;5.55;42.96
23679;BME280;12016;51.668;6.874;2023-03-01T21:02:35;102215.81;;;5.53;43.55
23679;BME280;12016;51.668;6.874;2023-03-01T21:09:10;102209.25;;;5.44;43.78
23679;BME280;12016;51.668;6.874;2023-03-01T21:15:28;102211.50;;;5.35;43.99
23679;BME280;12016;51.668;6.874;2023-03-01T21:21:30;101668.63;;;1.53;43.95
23679;BME280;12016;51.668;6.874;2023-03-01T21:27:37;102197.72;;;5.26;44.69
23679;BME280;12016;51.668;6.874;2023-03-01T21:33:44;102217.38;;;5.20;44.37
23679;BME280;12016;51.668;6.874;2023-03-01T21:39:46;102118.47;;;4.70;44.97
23679;BME280;12016;51.668;6.874;2023-03-01T21:45:50;102131.69;;;4.77;45.28
23679;BME280;12016;51.668;6.874;2023-03-01T21:52:19;102213.41;;;5.06;45.01
23679;BME280;12016;51.668;6.874;2023-03-01T21:58:23;102179.75;;;5.05;45.32
23679;BME280;12016;51.668;6.874;2023-03-01T22:04:26;102077.28;;;3.57;45.00
23679;BME280;12016;51.668;6.874;2023-03-01T22:10:32;102169.59;;;4.90;45.49
23679;BME280;12016;51.668;6.874;2023-03-01T22:17:01;101844.47;;;2.90;46.28
23679;BME280;12016;51.668;6.874;2023-03-01T22:23:03;102144.06;;;4.66;46.55
23679;BME280;12016;51.668;6.874;2023-03-01T22:29:12;102167.06;;;4.84;46.78
23679;BME280;12016;51.668;6.874;2023-03-01T22:35:14;101938.88;;;3.51;46.30
23679;BME280;12016;51.668;6.874;2023-03-01T22:41:16;101710.22;;;2.06;46.05
23679;BME280;12016;51.668;6.874;2023-03-01T22:47:18;101974.22;;;3.58;46.50
23679;BME280;12016;51.668;6.874;2023-03-01T22:53:20;102018.28;;;3.77;46.86
23679;BME280;12016;51.668;6.874;2023-03-01T22:59:22;102171.81;;;4.82;46.37
23679;BME280;12016;51.668;6.874;2023-03-01T23:05:24;102154.28;;;4.57;46.86
23679;BME280;12016;51.668;6.874;2023-03-01T23:11:27;102167.91;;;4.73;46.50
23679;BME280;12016;51.668;6.874;2023-03-01T23:17:29;102058.50;;;3.87;47.16
23679;BME280;12016;51.668;6.874;2023-03-01T23:23:31;102167.72;;;4.62;47.25
23679;BME280;12016;51.668;6.874;2023-03-01T23:29:33;102199.63;;;4.57;47.65
23679;BME280;12016;51.668;6.874;2023-03-01T23:35:37;101970.69;;;2.82;47.28
23679;BME280;12016;51.668;6.874;2023-03-01T23:41:40;102162.91;;;4.48;47.17
23679;BME280;12016;51.668;6.874;2023-03-01T23:47:42;102158.50;;;4.42;47.44
23679;BME280;12016;51.668;6.874;2023-03-01T23:53:46;102052.84;;;3.72;47.47
23679;BME280;12016;51.668;6.874;2023-03-01T23:59:57;102057.16;;;3.50;47.15
